Terminal Aerodrome Forecast
Issued by NWS

Home | Current Version | Previous Version | Text Only | Print | Product List | Glossary On
Versions: 1 2 3 4 5 6 7 8 9 10 11 12 13 14 15 16 17 18 19 20 21 22 23 24 25 26 27 28 29 30
000
FTUS45 KGJT 051105 AAB
TAFASE
TAF AMD
KASE 051105Z 0511/0606 22005KT P6SM -RA SCT008 BKN014
      TEMPO 0511/0512 6SM -RA BKN008
     FM051200 VRB03KT P6SM FEW080 BKN120
     FM052000 24010KT P6SM VCSH SCT080 BKN140
     FM060200 21006KT P6SM SCT140=

USA.gov is the U.S. government's official web portal to all federal, state and local government web resources and services.